Time;durP1;ratioP1;P1;durP2;ratioP2;P2;SDS_P1;SDS_P2;PMS_P1;PMS_P2;Temp;Humidity;BMP_temperature;BMP_pressure;BME280_temperature;BME280_humidity;BME280_pressure;Samples;Min_cycle;Max_cycle;Signal;HPM_P1;HPM_P2
2023/07/18 00:02:13;;;;;;;5.05;2.65;;;;;;;;;;4987864;28;20085;-81
2023/07/18 00:04:39;;;;;;;9.38;3.42;;;;;;;;;;4956124;28;20100;-81
2023/07/18 00:07:06;;;;;;;4.18;2.22;;;;;;;;;;4959634;28;20573;-81
2023/07/18 00:09:33;;;;;;;6.85;3.20;;;;;;;;;;4988221;28;20117;-81
2023/07/18 00:11:59;;;;;;;6.60;3.10;;;;;;;;;;4958310;28;20423;-81
2023/07/18 00:14:25;;;;;;;6.28;2.40;;;;;;;;;;4988742;28;20037;-81
2023/07/18 00:16:52;;;;;;;6.25;3.42;;;;;;;;;;4939254;28;20038;-82
2023/07/18 00:19:19;;;;;;;6.32;2.85;;;;;;;;;;4958188;28;20105;-81
2023/07/18 00:21:45;;;;;;;7.38;3.22;;;;;;;;;;4990818;28;20102;-81
2023/07/18 00:24:11;;;;;;;8.40;3.20;;;;;;;;;;4959050;28;20596;-81
2023/07/18 00:26:38;;;;;;;4.85;2.75;;;;;;;;;;4960558;28;20137;-81
2023/07/18 00:29:05;;;;;;;5.57;2.70;;;;;;;;;;4957405;28;20034;-81
2023/07/18 00:31:31;;;;;;;9.05;4.00;;;;;;;;;;4969292;28;20054;-81
2023/07/18 00:33:58;;;;;;;5.38;3.22;;;;;;;;;;4976030;28;20561;-81
2023/07/18 00:36:25;;;;;;;9.90;3.72;;;;;;;;;;4973835;28;20104;-81
2023/07/18 00:38:52;;;;;;;5.57;2.55;;;;;;;;;;4989112;28;20081;-81
2023/07/18 00:41:18;;;;;;;7.60;3.55;;;;;;;;;;4944294;28;20093;-81
2023/07/18 00:43:44;;;;;;;7.32;3.65;;;;;;;;;;4963952;28;20070;-80
2023/07/18 00:46:12;;;;;;;9.45;3.78;;;;;;;;;;4963291;28;20442;-81
2023/07/18 00:48:38;;;;;;;5.80;2.90;;;;;;;;;;4981415;28;20089;-81
2023/07/18 00:51:07;;;;;;;7.40;3.83;;;;;;;;;;4953576;28;20130;-81
2023/07/18 00:53:34;;;;;;;6.47;3.33;;;;;;;;;;4945703;28;20038;-81
2023/07/18 00:56:01;;;;;;;6.95;2.90;;;;;;;;;;4990470;28;20074;-81
2023/07/18 00:58:29;;;;;;;7.65;2.97;;;;;;;;;;4965746;28;20084;-81
2023/07/18 01:00:55;;;;;;;6.32;3.10;;;;;;;;;;4956114;28;20490;-81
2023/07/18 01:03:21;;;;;;;12.63;3.92;;;;;;;;;;4942329;28;20049;-81
2023/07/18 01:05:47;;;;;;;9.30;3.08;;;;;;;;;;4979115;28;20038;-81
2023/07/18 01:08:13;;;;;;;8.63;3.08;;;;;;;;;;4961154;28;20181;-81
2023/07/18 01:10:39;;;;;;;5.55;3.03;;;;;;;;;;4957775;28;20073;-81
2023/07/18 01:13:05;;;;;;;5.55;3.13;;;;;;;;;;4971481;28;20034;-81
2023/07/18 01:15:33;;;;;;;9.85;3.85;;;;;;;;;;4977560;28;20387;-80
2023/07/18 01:18:02;;;;;;;10.75;4.10;;;;;;;;;;4970593;28;20153;-81
2023/07/18 01:20:30;;;;;;;12.65;4.10;;;;;;;;;;4971712;28;20097;-81
2023/07/18 01:22:57;;;;;;;6.88;2.90;;;;;;;;;;4987789;28;20050;-82
2023/07/18 01:25:23;;;;;;;5.95;3.35;;;;;;;;;;4974047;28;20034;-81
2023/07/18 01:27:50;;;;;;;6.35;3.50;;;;;;;;;;4975715;28;20391;-81
2023/07/18 01:30:18;;;;;;;9.18;3.08;;;;;;;;;;4958325;28;20112;-81
2023/07/18 01:32:44;;;;;;;8.52;3.60;;;;;;;;;;4982769;28;20042;-81
2023/07/18 01:35:10;;;;;;;7.55;4.13;;;;;;;;;;4972953;28;20692;-80
2023/07/18 01:37:37;;;;;;;8.40;3.22;;;;;;;;;;4974634;28;20081;-81
2023/07/18 01:40:12;;;;;;;8.10;2.80;;;;;;;;;;4957115;28;20112;-81
2023/07/18 01:42:38;;;;;;;10.10;3.60;;;;;;;;;;4976162;28;20040;-81
2023/07/18 01:45:04;;;;;;;5.03;2.78;;;;;;;;;;4989216;28;20446;-81
2023/07/18 01:47:31;;;;;;;7.07;3.17;;;;;;;;;;4972955;28;20141;-81
2023/07/18 01:49:58;;;;;;;7.75;2.92;;;;;;;;;;4987348;28;20038;-81
2023/07/18 01:52:27;;;;;;;13.70;4.10;;;;;;;;;;4969411;28;20386;-81
2023/07/18 01:54:54;;;;;;;13.00;3.50;;;;;;;;;;4971480;28;20038;-81
2023/07/18 01:57:20;;;;;;;5.93;2.67;;;;;;;;;;4955439;28;20042;-81
2023/07/18 01:59:46;;;;;;;7.93;2.83;;;;;;;;;;4961563;28;20486;-81
2023/07/18 02:02:12;;;;;;;8.63;3.50;;;;;;;;;;4955942;28;20049;-81
2023/07/18 02:04:39;;;;;;;7.95;3.17;;;;;;;;;;4984795;28;20066;-81
2023/07/18 02:07:05;;;;;;;16.15;4.35;;;;;;;;;;4954724;28;20442;-81
2023/07/18 02:09:31;;;;;;;8.02;3.30;;;;;;;;;;4968155;28;20089;-81
2023/07/18 02:11:57;;;;;;;9.18;4.93;;;;;;;;;;4943149;28;20041;-81
2023/07/18 02:14:23;;;;;;;7.57;3.28;;;;;;;;;;4977728;28;20035;-81
2023/07/18 02:16:49;;;;;;;4.60;3.10;;;;;;;;;;4970248;28;20054;-81
2023/07/18 02:19:15;;;;;;;7.55;3.30;;;19.10;91.80;;;;;;4952271;28;20430;-81
2023/07/18 02:21:41;;;;;;;8.07;3.60;;;18.00;95.70;;;;;;4935926;28;20042;-81
2023/07/18 02:24:07;;;;;;;9.10;3.83;;;17.90;95.60;;;;;;4936961;28;20054;-80
2023/07/18 02:26:32;;;;;;;7.53;3.75;;;17.90;95.60;;;;;;4935927;28;20038;-81
2023/07/18 02:28:58;;;;;;;6.07;3.83;;;17.90;95.60;;;;;;4955794;28;20207;-81
2023/07/18 02:31:24;;;;;;;8.85;3.80;;;17.90;95.70;;;;;;4953513;28;20486;-81
2023/07/18 02:33:49;;;;;;;8.82;3.88;;;17.90;95.70;;;;;;4953798;28;20034;-81
2023/07/18 02:36:15;;;;;;;6.32;3.70;;;17.90;95.70;;;;;;4951824;28;20046;-81
2023/07/18 02:38:41;;;;;;;6.97;3.13;;;17.90;95.70;;;;;;4955844;28;20050;-81
2023/07/18 02:41:07;;;;;;;8.43;3.60;;;17.90;95.80;;;;;;4965559;28;20122;-81
2023/07/18 02:43:32;;;;;;;6.68;3.20;;;17.90;95.80;;;;;;4954184;28;20057;-81
2023/07/18 02:45:58;;;;;;;9.75;3.47;;;17.90;95.90;;;;;;4956305;28;20056;-81
2023/07/18 02:48:24;;;;;;;11.45;4.20;;;17.80;95.90;;;;;;4956156;28;20048;-81
2023/07/18 02:50:49;;;;;;;8.48;3.88;;;17.80;96.00;;;;;;4930012;28;20173;-81
2023/07/18 02:53:15;;;;;;;9.90;3.40;;;17.80;96.00;;;;;;4985821;28;20049;-81
2023/07/18 02:55:41;;;;;;;7.82;3.22;;;17.70;96.00;;;;;;4971744;28;20089;-81
2023/07/18 02:58:07;;;;;;;6.85;3.95;;;17.80;96.30;;;;;;4956069;28;20050;-81
2023/07/18 03:00:33;;;;;;;8.15;3.97;;;17.70;96.10;;;;;;4968968;28;20467;-81
2023/07/18 03:03:00;;;;;;;5.95;3.55;;;17.70;96.10;;;;;;4978618;28;20442;-80
2023/07/18 03:05:27;;;;;;;9.38;3.38;;;17.70;96.20;;;;;;4986394;28;20061;-80
2023/07/18 03:07:54;;;;;;;9.70;3.28;;;17.70;96.20;;;;;;4966807;28;20336;-81
2023/07/18 03:10:21;;;;;;;10.40;3.60;;;17.70;96.20;;;;;;4983625;28;20043;-81
2023/07/18 03:12:47;;;;;;;8.75;4.00;;;17.70;96.20;;;;;;4972224;28;20450;-81
2023/07/18 03:15:12;;;;;;;11.77;3.65;;;17.70;96.30;;;;;;4970388;28;20039;-81
2023/07/18 03:17:38;;;;;;;9.38;3.35;;;17.70;96.30;;;;;;4965258;28;20042;-81
2023/07/18 03:20:16;;;;;;;8.30;3.92;;;;;;;;;;4959115;28;20078;-81
2023/07/18 03:22:46;;;;;;;7.90;3.80;;;;;;;;;;4961761;28;20130;-80
2023/07/18 03:25:13;;;;;;;9.18;4.15;;;;;;;;;;4985344;28;20142;-81
2023/07/18 03:27:39;;;;;;;8.38;3.97;;;;;;;;;;4970767;28;20035;-81
2023/07/18 03:30:06;;;;;;;10.10;3.47;;;;;;;;;;4962715;28;20130;-81
2023/07/18 03:32:33;;;;;;;9.07;4.22;;;;;;;;;;4959220;28;20489;-81
2023/07/18 03:34:59;;;;;;;9.40;3.80;;;;;;;;;;4977437;28;20113;-80
2023/07/18 03:37:26;;;;;;;9.35;3.25;;;;;;;;;;4971226;28;20066;-80
2023/07/18 03:39:52;;;;;;;8.82;3.60;;;;;;;;;;4939893;28;20129;-81
2023/07/18 03:42:18;;;;;;;8.68;3.33;;;;;;;;;;4953762;28;20055;-82
2023/07/18 03:44:44;;;;;;;6.25;3.97;;;;;;;;;;4956361;28;20122;-82
2023/07/18 03:47:11;;;;;;;10.10;3.78;;;;;;;;;;4989821;28;20081;-81
2023/07/18 03:49:37;;;;;;;10.65;3.70;;;;;;;;;;4987129;28;20077;-81
2023/07/18 03:52:04;;;;;;;9.48;3.55;;;;;;;;;;4945903;28;20038;-81
2023/07/18 03:54:30;;;;;;;9.27;4.20;;;;;;;;;;4961594;28;20069;-79
2023/07/18 03:56:56;;;;;;;9.90;4.63;;;;;;;;;;4976532;28;20485;-81
2023/07/18 03:59:22;;;;;;;10.05;4.18;;;;;;;;;;4976232;28;20078;-80
2023/07/18 04:01:48;;;;;;;9.65;4.05;;;;;;;;;;4976621;28;20375;-80
2023/07/18 04:04:15;;;;;;;8.02;4.05;;;;;;;;;;4977087;28;20054;-80
2023/07/18 04:06:43;;;;;;;11.85;4.13;;;;;;;;;;4992004;28;20039;-80
2023/07/18 04:09:10;;;;;;;14.23;3.88;;;;;;;;;;4980373;28;20041;-80
2023/07/18 04:11:37;;;;;;;7.10;3.58;;;;;;;;;;4991896;28;20069;-80
2023/07/18 04:14:03;;;;;;;10.20;4.05;;;;;;;;;;4959282;28;20030;-80
2023/07/18 04:16:29;;;;;;;9.05;3.72;;;;;;;;;;4960402;28;20095;-80
2023/07/18 04:18:55;;;;;;;6.95;4.20;;;;;;;;;;4959198;28;20039;-80
2023/07/18 04:21:21;;;;;;;12.02;3.80;;;;;;;;;;4958407;28;20066;-80
2023/07/18 04:23:48;;;;;;;6.90;3.67;;;;;;;;;;4975599;28;20120;-81
2023/07/18 04:26:14;;;;;;;8.40;3.28;;;;;;;;;;4959178;28;20267;-80
2023/07/18 04:28:40;;;;;;;6.82;3.42;;;;;;;;;;4990765;28;20150;-80
2023/07/18 04:31:06;;;;;;;6.35;3.22;;;;;;;;;;4959116;28;20035;-80
2023/07/18 04:33:37;;;;;;;8.25;3.55;;;;;;;;;;4956984;28;20046;-81
2023/07/18 04:36:07;;;;;;;5.95;3.35;;;;;;;;;;4979955;28;20467;-81
2023/07/18 04:38:34;;;;;;;8.23;3.60;;;;;;;;;;4973967;28;20058;-81
2023/07/18 04:41:00;;;;;;;10.13;4.85;;;;;;;;;;4990220;28;20038;-81
2023/07/18 04:43:27;;;;;;;10.80;3.45;;;;;;;;;;4973566;28;20109;-81
2023/07/18 04:45:53;;;;;;;8.93;4.10;;;;;;;;;;4958471;28;20057;-81
2023/07/18 04:48:20;;;;;;;6.75;4.00;;;;;;;;;;4975348;28;20101;-82
2023/07/18 04:50:47;;;;;;;8.63;4.18;;;;;;;;;;4976789;28;20045;-81
2023/07/18 04:53:13;;;;;;;12.20;3.95;;;;;;;;;;4990827;28;20053;-81
2023/07/18 04:55:39;;;;;;;8.35;3.30;;;;;;;;;;4959846;28;20046;-81
2023/07/18 04:58:07;;;;;;;8.55;3.30;;;;;;;;;;4958754;28;20041;-82
2023/07/18 05:00:33;;;;;;;7.90;3.35;;;;;;;;;;4990618;28;20556;-81
2023/07/18 05:03:00;;;;;;;7.32;3.45;;;;;;;;;;4955415;28;20062;-81
2023/07/18 05:05:27;;;;;;;8.43;3.45;;;;;;;;;;4990429;28;20132;-81
2023/07/18 05:07:54;;;;;;;8.88;3.80;;;;;;;;;;4972747;28;20072;-81
2023/07/18 05:10:21;;;;;;;8.07;3.15;;;;;;;;;;4954245;28;20049;-82
2023/07/18 05:12:47;;;;;;;10.25;4.05;;;;;;;;;;4967473;28;20050;-81
2023/07/18 05:15:13;;;;;;;12.10;3.90;;;;;;;;;;4973771;28;20038;-81
2023/07/18 05:17:39;;;;;;;10.43;3.90;;;;;;;;;;4957897;28;20069;-81
2023/07/18 05:20:05;;;;;;;15.45;4.22;;;;;;;;;;4941587;28;20041;-81
2023/07/18 05:22:33;;;;;;;13.57;3.75;;;;;;;;;;4955958;28;20074;-80
2023/07/18 05:25:00;;;;;;;12.43;4.00;;;;;;;;;;4937692;28;20439;-81
2023/07/18 05:27:26;;;;;;;12.90;4.75;;;;;;;;;;4969075;28;20064;-81
2023/07/18 05:29:52;;;;;;;7.05;3.58;;;;;;;;;;4967090;28;20129;-81
2023/07/18 05:32:19;;;;;;;13.10;4.32;;;;;;;;;;4972320;28;20038;-81
2023/07/18 05:34:45;;;;;;;9.00;4.38;;;;;;;;;;4956892;28;20050;-81
2023/07/18 05:37:11;;;;;;;11.85;4.20;;;;;;;;;;4942361;28;20101;-81
2023/07/18 05:39:37;;;;;;;13.98;4.78;;;;;;;;;;4971444;28;20490;-86
2023/07/18 05:42:04;;;;;;;13.30;4.43;;;;;;;;;;4988174;28;20120;-86
2023/07/18 05:44:30;;;;;;;12.35;4.25;;;;;;;;;;4989709;28;20081;-89
2023/07/18 05:46:58;;;;;;;11.25;4.60;;;;;;;;;;4976543;28;20038;-85
2023/07/18 05:49:24;;;;;;;11.65;5.32;;;;;;;;;;4972959;28;20042;-84
2023/07/18 05:51:51;;;;;;;13.45;5.03;;;;;;;;;;4974434;28;20043;-85
2023/07/18 05:54:18;;;;;;;11.50;5.05;;;;;;;;;;4974944;28;20088;-87
2023/07/18 05:56:44;;;;;;;17.67;5.45;;;;;;;;;;4957226;28;20039;-88
2023/07/18 05:59:10;;;;;;;14.88;5.60;;;;;;;;;;4969401;28;20049;-86
2023/07/18 06:01:36;;;;;;;10.20;4.13;;;;;;;;;;4990598;28;20038;-86
2023/07/18 06:04:03;;;;;;;13.15;4.90;;;;;;;;;;4942875;28;20041;-88
2023/07/18 06:06:31;;;;;;;12.75;5.15;;;;;;;;;;4973155;28;20395;-86
2023/07/18 06:08:57;;;;;;;10.23;5.40;;;;;;;;;;4988926;28;20096;-81
2023/07/18 06:11:23;;;;;;;13.85;5.30;;;;;;;;;;4957989;28;20116;-80
2023/07/18 06:13:49;;;;;;;15.82;6.35;;;17.70;96.30;;;;;;4971949;28;20093;-80
2023/07/18 06:16:16;;;;;;;16.67;5.80;;;18.00;99.90;;;;;;4973334;28;20042;-80
2023/07/18 06:18:41;;;;;;;12.50;4.60;;;18.10;99.90;;;;;;4939231;28;20177;-79
2023/07/18 06:21:07;;;;;;;18.90;5.18;;;18.10;99.90;;;;;;4955446;28;20132;-80
2023/07/18 06:23:34;;;;;;;12.55;5.40;;;;;;;;;;4988228;28;20030;-79
2023/07/18 06:26:00;;;;;;;13.57;5.35;;;;;;;;;;4956359;28;20208;-80
2023/07/18 06:28:26;;;;;;;15.45;5.72;;;;;;;;;;4939649;28;20062;-80
2023/07/18 06:30:55;;;;;;;9.23;4.65;;;;;;;;;;4973635;28;20077;-80
2023/07/18 06:33:25;;;;;;;14.85;4.80;;;;;;;;;;4957556;28;20515;-80
2023/07/18 06:35:52;;;;;;;14.50;6.10;;;;;;;;;;4989514;28;20130;-80
2023/07/18 06:38:19;;;;;;;21.65;5.85;;;;;;;;;;4973968;28;20058;-81
2023/07/18 06:40:46;;;;;;;11.27;4.80;;;;;;;;;;4953317;28;20042;-80
2023/07/18 06:43:12;;;;;;;11.75;6.63;;;;;;;;;;4972379;28;20122;-80
2023/07/18 06:45:38;;;;;;;14.95;7.95;;;;;;;;;;4971481;28;20034;-80
2023/07/18 06:48:05;;;;;;;12.45;6.88;;;;;;;;;;4989535;28;20074;-81
2023/07/18 06:50:31;;;;;;;16.20;7.57;;;;;;;;;;4965582;28;20053;-80
2023/07/18 06:52:57;;;;;;;13.23;6.45;;;;;;;;;;4960730;28;20520;-81
2023/07/18 06:55:23;;;;;;;13.65;7.28;;;;;;;;;;4941554;28;20157;-80
2023/07/18 06:57:49;;;;;;;18.77;8.05;;;;;;;;;;4952758;28;20073;-81
2023/07/18 07:00:16;;;;;;;14.63;7.55;;;;;;;;;;4957126;28;20061;-80
2023/07/18 07:02:42;;;;;;;11.55;6.72;;;;;;;;;;4962285;28;20117;-86
2023/07/18 07:05:09;;;;;;;17.05;6.50;;;18.10;99.90;;;;;;4975601;28;20046;-86
2023/07/18 07:07:34;;;;;;;8.82;5.95;;;18.70;99.90;;;;;;4984299;28;20042;-86
2023/07/18 07:10:01;;;;;;;15.60;7.40;;;;;;;;;;4971680;28;20050;-87
2023/07/18 07:12:27;;;;;;;9.93;5.45;;;;;;;;;;4990111;28;20100;-86
2023/07/18 07:14:53;;;;;;;15.82;6.22;;;;;;;;;;4986985;28;20035;-86
2023/07/18 07:17:20;;;;;;;13.95;5.80;;;;;;;;;;4989937;28;20057;-86
2023/07/18 07:19:46;;;;;;;11.95;5.13;;;;;;;;;;4958783;28;20567;-86
2023/07/18 07:22:13;;;;;;;12.35;5.50;;;;;;;;;;4961395;28;20043;-86
2023/07/18 07:24:39;;;;;;;10.63;5.28;;;;;;;;;;4989283;28;20046;-86
2023/07/18 07:27:07;;;;;;;15.95;5.97;;;;;;;;;;4975098;28;20050;-87
2023/07/18 07:29:33;;;;;;;14.25;4.80;;;;;;;;;;4962977;28;20046;-86
2023/07/18 07:31:59;;;;;;;11.10;5.38;;;18.80;99.90;;;;;;4951322;28;20034;-86
2023/07/18 07:34:24;;;;;;;12.48;4.88;;;19.20;99.90;;;;;;4978393;28;20064;-86
2023/07/18 07:36:50;;;;;;;11.88;5.60;;;19.20;99.90;;;;;;4994352;28;20045;-86
2023/07/18 07:39:17;;;;;;;11.05;4.72;;;19.30;99.90;;;;;;4977887;28;20132;-87
2023/07/18 07:41:44;;;;;;;8.32;4.20;;;19.20;99.90;;;;;;5016796;28;20092;-86
2023/07/18 07:44:10;;;;;;;8.68;4.45;;;19.30;99.90;;;;;;4999800;28;20093;-86
2023/07/18 07:46:36;;;;;;;7.88;3.65;;;19.30;99.90;;;;;;4994216;28;20473;-86
2023/07/18 07:49:01;;;;;;;7.63;3.42;;;19.30;99.90;;;;;;4978098;28;20045;-86
2023/07/18 07:51:27;;;;;;;10.00;4.82;;;19.40;99.90;;;;;;4960949;28;20096;-86
2023/07/18 07:53:54;;;;;;;12.48;3.47;;;19.40;99.90;;;;;;4964141;28;20406;-86
2023/07/18 07:56:20;;;;;;;7.55;4.03;;;19.40;99.90;;;;;;4977216;28;20050;-86
2023/07/18 07:58:46;;;;;;;6.97;3.60;;;19.40;99.90;;;;;;5010592;28;20052;-86
2023/07/18 08:01:12;;;;;;;9.02;3.33;;;19.50;99.90;;;;;;4977241;28;20061;-86
2023/07/18 08:03:38;;;;;;;13.73;3.78;;;19.50;99.90;;;;;;4978185;28;20375;-86
2023/07/18 08:06:03;;;;;;;9.55;3.83;;;19.50;99.90;;;;;;4958982;28;20587;-88
2023/07/18 08:08:29;;;;;;;17.92;4.28;;;19.50;99.90;;;;;;4969528;28;20047;-86
2023/07/18 08:10:55;;;;;;;11.80;4.03;;;19.60;99.90;;;;;;4977301;28;20356;-86
2023/07/18 08:13:21;;;;;;;6.65;3.30;;;19.70;99.90;;;;;;4977937;28;20095;-86
2023/07/18 08:15:46;;;;;;;11.15;4.90;;;19.80;99.90;;;;;;4993699;28;20041;-87
2023/07/18 08:18:12;;;;;;;8.43;3.22;;;19.80;99.90;;;;;;4994065;28;20077;-86
2023/07/18 08:20:38;;;;;;;10.98;3.60;;;19.90;99.90;;;;;;5009578;28;20038;-86
2023/07/18 08:23:04;;;;;;;11.05;4.07;;;19.90;99.90;;;;;;4974491;28;20290;-86
2023/07/18 08:25:29;;;;;;;7.22;3.33;;;20.00;99.90;;;;;;4953036;28;20046;-80
2023/07/18 08:27:56;;;;;;;14.10;4.55;;;20.00;99.80;;;;;;4959388;28;20038;-86
2023/07/18 08:30:22;;;;;;;7.82;3.20;;;20.00;99.70;;;;;;5009548;28;20549;-86
2023/07/18 08:32:48;;;;;;;5.93;3.35;;;19.90;99.50;;;;;;4977385;28;20042;-86
2023/07/18 08:35:14;;;;;;;6.63;3.28;;;20.00;99.50;;;;;;4964530;28;20042;-86
2023/07/18 08:37:40;;;;;;;7.07;3.83;;;20.00;99.40;;;;;;4982692;28;20053;-86
2023/07/18 08:40:09;;;;;;;6.38;3.03;;;20.10;99.40;;;;;;4961890;28;20054;-86
2023/07/18 08:42:36;;;;;;;8.43;3.45;;;20.10;99.30;;;;;;4946460;28;20054;-86
2023/07/18 08:45:03;;;;;;;8.15;3.35;;;;;;;;;;4995173;28;20376;-86
2023/07/18 08:47:29;;;;;;;9.13;3.15;;;20.20;99.30;;;;;;4961721;28;20129;-85
2023/07/18 08:49:55;;;;;;;8.10;2.90;;;20.30;99.10;;;;;;4995976;28;20038;-85
2023/07/18 08:52:21;;;;;;;9.77;3.47;;;;;;;;;;4965868;28;20038;-85
2023/07/18 08:54:47;;;;;;;8.57;3.60;;;;;;;;;;4991544;28;20072;-86
2023/07/18 08:57:14;;;;;;;6.35;3.10;;;;;;;;;;4988852;28;20046;-85
2023/07/18 08:59:40;;;;;;;6.18;2.97;;;;;;;;;;4991086;28;20194;-85
2023/07/18 09:02:06;;;;;;;10.98;3.78;;;;;;;;;;5003319;28;20054;-86
2023/07/18 09:04:32;;;;;;;8.18;3.55;;;;;;;;;;4977715;28;20085;-86
2023/07/18 09:06:59;;;;;;;6.32;2.65;;;;;;;;;;4998697;28;20524;-86
2023/07/18 09:09:26;;;;;;;6.72;2.95;;;;;;;;;;5004900;28;20051;-85
2023/07/18 09:11:55;;;;;;;4.72;2.28;;;;;;;;;;4981604;28;20038;-85
2023/07/18 09:14:26;;;;;;;9.50;2.78;;;;;;;;;;4999962;28;20044;-86
2023/07/18 09:16:53;;;;;;;6.10;3.08;;;;;;;;;;4991204;28;20150;-86
2023/07/18 09:19:19;;;;;;;7.75;3.30;;;;;;;;;;4992604;28;20057;-86
2023/07/18 09:21:46;;;;;;;5.97;2.60;;;;;;;;;;4945029;28;20518;-86
2023/07/18 09:24:12;;;;;;;8.98;3.03;;;;;;;;;;4990022;28;20049;-86
2023/07/18 09:26:39;;;;;;;7.10;2.67;;;;;;;;;;4976446;28;20043;-86
2023/07/18 09:29:11;;;;;;;8.45;3.30;;;;;;;;;;4973650;28;20038;-86
2023/07/18 09:31:38;;;;;;;6.63;2.47;;;;;;;;;;4988315;28;20040;-86
2023/07/18 09:34:10;;;;;;;6.72;2.67;;;;;;;;;;4980587;28;20105;-81
2023/07/18 09:36:36;;;;;;;7.68;2.47;;;;;;;;;;4990101;28;20379;-81
2023/07/18 09:39:03;;;;;;;6.35;2.90;;;;;;;;;;4974257;28;20487;-80
2023/07/18 09:41:30;;;;;;;4.95;2.65;;;;;;;;;;4958377;28;20663;-81
2023/07/18 09:43:57;;;;;;;6.45;3.20;;;;;;;;;;4957887;28;20069;-80
2023/07/18 09:46:24;;;;;;;4.63;2.45;;;;;;;;;;4958220;28;20430;-80
2023/07/18 09:48:50;;;;;;;6.45;2.70;;;;;;;;;;4945932;28;20046;-81
2023/07/18 09:51:20;;;;;;;7.72;2.60;;;;;;;;;;4975345;28;20066;-81
2023/07/18 09:53:47;;;;;;;5.50;2.90;;;;;;;;;;4957784;28;20085;-80
2023/07/18 09:56:17;;;;;;;7.43;3.25;;;;;;;;;;4958252;28;20088;-80
2023/07/18 09:58:44;;;;;;;4.47;2.55;;;;;;;;;;4988951;28;20042;-80
2023/07/18 10:01:16;;;;;;;11.18;3.63;;;;;;;;;;4974972;28;20094;-86
2023/07/18 10:03:43;;;;;;;6.82;2.72;;;;;;;;;;4979612;28;20434;-86
2023/07/18 10:06:11;;;;;;;10.55;2.88;;;;;;;;;;4991685;28;20443;-86
2023/07/18 10:08:41;;;;;;;6.50;2.65;;;;;;;;;;4991479;28;20042;-86
2023/07/18 10:11:08;;;;;;;7.43;2.72;;;20.40;99.10;;;;;;4987935;28;20039;-86
2023/07/18 10:13:55;;;;;;;9.93;4.07;;;21.40;96.40;;;;;;4990706;28;20435;-86
2023/07/18 10:16:22;;;;;;;8.65;3.35;;;21.50;96.40;;;;;;4991989;28;20125;-86
2023/07/18 10:18:52;;;;;;;7.07;2.70;;;21.60;96.20;;;;;;4958780;28;20046;-86
2023/07/18 10:21:28;;;;;;;7.63;3.40;;;21.70;96.30;;;;;;4975305;28;20046;-86
2023/07/18 10:23:54;;;;;;;6.53;3.05;;;21.80;96.20;;;;;;4970909;28;20051;-86
2023/07/18 10:26:33;;;;;;;7.72;3.20;;;21.90;96.00;;;;;;4948323;28;20066;-86
2023/07/18 10:29:02;;;;;;;7.80;3.00;;;22.00;95.90;;;;;;4991382;28;20169;-86
2023/07/18 10:31:38;;;;;;;5.32;3.25;;;22.10;95.90;;;;;;4986836;28;20034;-86
2023/07/18 10:34:10;;;;;;;6.05;2.63;;;22.20;95.90;;;;;;4995076;28;20061;-86
2023/07/18 10:36:36;;;;;;;6.68;3.15;;;;;;;;;;4975093;28;20038;-86
2023/07/18 10:39:08;;;;;;;9.00;2.85;;;;;;;;;;4977465;28;20058;-86
2023/07/18 10:41:34;;;;;;;5.35;2.95;;;22.30;95.70;;;;;;4991230;28;20491;-86
2023/07/18 10:44:00;;;;;;;4.88;2.65;;;22.60;95.30;;;;;;4972962;28;20082;-86
2023/07/18 10:46:35;;;;;;;9.18;3.15;;;;;;;;;;4974385;28;20510;-86
2023/07/18 10:49:01;;;;;;;7.95;3.05;;;;;;;;;;4985817;28;20390;-87
2023/07/18 10:51:30;;;;;;;5.90;2.92;;;22.70;95.20;;;;;;4971482;28;20074;-86
2023/07/18 10:53:58;;;;;;;7.00;3.45;;;;;;;;;;4987789;28;20125;-86
2023/07/18 10:56:24;;;;;;;6.30;3.33;;;22.90;95.00;;;;;;4975791;28;20103;-86
2023/07/18 10:58:51;;;;;;;10.43;3.60;;;;;;;;;;4960834;28;20559;-86
2023/07/18 11:01:17;;;;;;;8.60;3.10;;;23.00;94.60;;;;;;4970881;28;20118;-86
2023/07/18 11:03:47;;;;;;;7.38;2.83;;;23.00;94.40;;;;;;4972937;28;20058;-86
2023/07/18 11:06:16;;;;;;;6.97;3.05;;;23.00;94.40;;;;;;4971796;28;20057;-86
2023/07/18 11:08:47;;;;;;;8.02;3.42;;;23.00;94.50;;;;;;4957235;28;20065;-81
2023/07/18 11:11:14;;;;;;;7.85;3.22;;;23.10;94.30;;;;;;4963332;28;20099;-81
2023/07/18 11:13:43;;;;;;;6.13;3.15;;;23.10;94.30;;;;;;4962560;28;20042;-81
2023/07/18 11:16:11;;;;;;;5.75;3.13;;;23.20;94.20;;;;;;4986508;28;20041;-81
2023/07/18 11:18:40;;;;;;;8.80;3.63;;;23.20;94.20;;;;;;4988221;28;20230;-81
2023/07/18 11:21:07;;;;;;;10.00;4.18;;;23.30;94.00;;;;;;4968701;28;20070;-81
2023/07/18 11:23:34;;;;;;;9.90;4.15;;;23.30;93.90;;;;;;4970989;28;20062;-82
2023/07/18 11:26:18;;;;;;;9.13;3.83;;;23.30;93.70;;;;;;4985972;28;20043;-81
2023/07/18 11:28:49;;;;;;;9.82;3.67;;;23.30;93.30;;;;;;4987482;28;20050;-81
2023/07/18 11:31:26;;;;;;;8.20;3.95;;;;;;;;;;4956409;28;20073;-81
2023/07/18 11:33:56;;;;;;;9.80;4.60;;;23.30;93.60;;;;;;4983614;28;20042;-81
2023/07/18 11:36:26;;;;;;;9.80;3.53;;;23.50;93.60;;;;;;4972564;28;20136;-81
2023/07/18 11:38:52;;;;;;;6.55;3.85;;;;;;;;;;4989278;28;20054;-81
2023/07/18 11:41:34;;;;;;;6.03;3.00;;;;;;;;;;4988217;28;20053;-81
2023/07/18 11:44:01;;;;;;;7.20;2.83;;;;;;;;;;4972290;28;20042;-81
2023/07/18 11:46:38;;;;;;;15.38;4.07;;;23.50;93.50;;;;;;4955968;28;20110;-81
2023/07/18 11:49:05;;;;;;;13.27;3.55;;;23.60;93.60;;;;;;4971562;28;20042;-81
2023/07/18 11:51:34;;;;;;;6.78;2.88;;;23.70;93.20;;;;;;4972101;28;20129;-81
2023/07/18 11:54:01;;;;;;;6.05;3.10;;;23.70;93.20;;;;;;4939680;28;20698;-81
2023/07/18 11:56:28;;;;;;;7.30;3.10;;;23.80;93.30;;;;;;4970991;28;20577;-81
2023/07/18 11:58:54;;;;;;;7.68;3.47;;;23.90;93.10;;;;;;4973112;28;20042;-81
2023/07/18 12:01:20;;;;;;;6.13;3.55;;;24.00;92.80;;;;;;4993409;28;20038;-81
2023/07/18 12:03:46;;;;;;;8.10;3.28;;;24.00;92.50;;;;;;4961947;28;20125;-81
2023/07/18 12:06:11;;;;;;;7.82;2.75;;;24.00;92.40;;;;;;4968372;28;20074;-81
2023/07/18 12:08:37;;;;;;;7.03;2.47;;;24.00;92.50;;;;;;4971241;28;20034;-81
2023/07/18 12:11:04;;;;;;;9.02;3.03;;;24.10;92.30;;;;;;4981678;28;20501;-81
2023/07/18 12:13:31;;;;;;;11.68;4.32;;;24.20;92.30;;;;;;4968736;28;20066;-81
2023/07/18 12:15:57;;;;;;;4.88;2.25;;;24.20;92.20;;;;;;4966964;28;20034;-82
2023/07/18 12:18:24;;;;;;;7.07;2.42;;;24.40;92.10;;;;;;4958608;28;20038;-81
2023/07/18 12:20:50;;;;;;;4.60;2.47;;;24.40;92.10;;;;;;4975583;28;20050;-81
2023/07/18 12:23:16;;;;;;;6.43;3.13;;;24.50;92.20;;;;;;4973990;28;20205;-85
2023/07/18 12:25:41;;;;;;;6.15;2.65;;;24.70;92.30;;;;;;4977377;28;20534;-86
2023/07/18 12:28:07;;;;;;;5.53;2.75;;;24.80;92.20;;;;;;4994314;28;20073;-86
2023/07/18 12:30:34;;;;;;;6.22;2.47;;;;;;;;;;4979808;28;20450;-85
2023/07/18 12:33:00;;;;;;;6.00;2.15;;;24.90;92.20;;;;;;4961497;28;20038;-86
2023/07/18 12:35:27;;;;;;;4.97;2.42;;;;;;;;;;4996799;28;20069;-86
2023/07/18 12:37:56;;;;;;;5.88;2.47;;;;;;;;;;4995867;28;20116;-87
2023/07/18 12:40:23;;;;;;;4.32;1.52;;;25.00;92.20;;;;;;4977033;28;20070;-86
2023/07/18 12:42:49;;;;;;;4.57;1.80;;;;;;;;;;5001726;28;20383;-86
2023/07/18 12:45:16;;;;;;;3.65;1.63;;;;;;;;;;4977163;28;20084;-86
2023/07/18 12:47:43;;;;;;;3.63;1.98;;;;;;;;;;4960229;28;20065;-81
2023/07/18 12:50:10;;;;;;;5.43;1.52;;;;;;;;;;4990954;28;20181;-81
2023/07/18 12:52:37;;;;;;;4.30;1.70;;;;;;;;;;4959224;28;20401;-80
2023/07/18 12:55:03;;;;;;;2.08;1.30;;;;;;;;;;4991029;28;20092;-80
2023/07/18 12:57:29;;;;;;;4.95;1.83;;;;;;;;;;4975786;28;20466;-81
2023/07/18 12:59:55;;;;;;;5.82;1.95;;;;;;;;;;4958740;28;20041;-81
2023/07/18 13:02:21;;;;;;;4.80;1.65;;;;;;;;;;4958666;28;20046;-81
2023/07/18 13:04:47;;;;;;;3.63;1.70;;;;;;;;;;4958762;28;20408;-81
2023/07/18 13:07:14;;;;;;;3.78;1.88;;;;;;;;;;4983057;28;20038;-81
2023/07/18 13:09:41;;;;;;;2.95;1.50;;;;;;;;;;4955272;28;20121;-81
2023/07/18 13:12:07;;;;;;;7.35;2.05;;;;;;;;;;4975655;28;20042;-81
2023/07/18 13:14:33;;;;;;;10.38;2.15;;;;;;;;;;4991238;28;20394;-81
2023/07/18 13:16:59;;;;;;;4.80;1.60;;;;;;;;;;4990734;28;20441;-81
2023/07/18 13:19:26;;;;;;;3.42;1.65;;;;;;;;;;4990848;28;20141;-81
2023/07/18 13:21:52;;;;;;;6.47;2.25;;;;;;;;;;4974468;28;20046;-81
2023/07/18 13:24:18;;;;;;;9.32;1.90;;;;;;;;;;4973711;28;20038;-81
2023/07/18 13:26:44;;;;;;;3.67;1.88;;;;;;;;;;4973938;28;20129;-81
2023/07/18 13:29:10;;;;;;;6.13;2.03;;;;;;;;;;4973933;28;20166;-81
2023/07/18 13:31:36;;;;;;;4.82;1.83;;;;;;;;;;4989918;28;20042;-81
2023/07/18 13:34:03;;;;;;;4.65;1.83;;;;;;;;;;4958158;28;20034;-81
2023/07/18 13:36:30;;;;;;;4.75;2.13;;;;;;;;;;4957989;28;20045;-81
2023/07/18 13:38:56;;;;;;;5.50;1.58;;;;;;;;;;4973733;28;20061;-81
2023/07/18 13:41:23;;;;;;;8.88;2.00;;;;;;;;;;4974104;28;20132;-81
2023/07/18 13:43:49;;;;;;;5.63;2.17;;;;;;;;;;4958075;28;20404;-81
2023/07/18 13:46:15;;;;;;;6.13;2.25;;;;;;;;;;4972949;28;20312;-80
2023/07/18 13:48:42;;;;;;;2.65;1.70;;;;;;;;;;4972495;28;20129;-81
2023/07/18 13:51:08;;;;;;;3.33;1.80;;;;;;;;;;4958024;28;20812;-81
2023/07/18 13:53:34;;;;;;;3.28;1.83;;;;;;;;;;4953731;28;20038;-81
2023/07/18 13:56:01;;;;;;;7.03;1.80;;;;;;;;;;4956599;28;20097;-81
2023/07/18 13:58:27;;;;;;;3.38;1.48;;;;;;;;;;4991294;28;20422;-81